Huvudsida
METAR-TAF:

METAR-TAF

Flygplatser :

Montichiari

Brescia, Italien

latitud: 45-24-02N, longitud: 010-18-59E, höjd: 104 m

Aktuellt väderrapport

Denna rapport gjordes för 1 timme och 2 minuter sedan, klockan 21:50 UTC
Vind 4 kt från nord/nordväst
Temperatur 8°C
Fuktighet 100%
Tryck 1006 hPa
Sikt: 5000 m
Brutna moln på en höjd av 1000 ft
lätt regn, fuktdis

METAR: LIPO 152150Z 33004KT 5000 -RA BR BKN010 08/08 Q1006

Tid: 23:52 (22:52 UTC)

Väderprognos

Denna rapport gjordes för 5 timmar och 52 minuter sedan, klockan 17:00 UTC
Prognos gäller från 15 kl. 18 UTC till 16 kl. 18 UTC
Vind 10 kt från ost
Sikt: 6000 m
Spridda moln på en höjd av 2000 ft
Brutna moln på en höjd av 4000 ft
Temporärt
från 15 kl. 18 UTC till 15 kl. 24 UTC
Sikt: 3000 m
regn

TAF: LIPO 151700Z 1518/1618 09010KT 6000 SCT020 BKN040 TEMPO 1518/1524 3000 RA

Aktuella väderrapporter och prognoser från 4000 flygplatser (METAR- och TAF-rapporter).

De tillgängliga stationerna syns som gula och röda prickar på kartan.

För musen över prickarna för att se namnen på stationerna.

Klicka sedan för att få väderrapporter och prognoser.

För att ändra kartan: Klicka på de gröna knapparna med ett svart kors på för att zooma in; den gröna knappen med ett streck på för att zooma ut; eller på de gröna pilarna för angränsande kartor.


METAR-TAF: